Time;durP1;ratioP1;P1;durP2;ratioP2;P2;SDS_P1;SDS_P2;PMS_P1;PMS_P2;Temp;Humidity;BMP_temperature;BMP_pressure;BME280_temperature;BME280_humidity;BME280_pressure;Samples;Min_cycle;Max_cycle;Signal;HPM_P1;HPM_P2
2022/07/19 00:02:10;;;;;;;2.30;0.98;;;;;;;24.61;38.29;100192.94;5015587;28;20026;-89
2022/07/19 00:04:36;;;;;;;2.35;1.23;;;;;;;23.46;38.60;100040.97;5015181;28;20017;-89
2022/07/19 00:07:05;;;;;;;2.55;0.90;;;;;;;24.14;38.24;100122.47;5015437;28;20026;-89
2022/07/19 00:09:30;;;;;;;1.60;0.82;;;;;;;24.15;38.52;100136.78;5015716;28;20032;-89
2022/07/19 00:11:56;;;;;;;2.25;1.05;;;;;;;24.22;38.80;100158.97;5015197;28;20022;-89
2022/07/19 00:14:22;;;;;;;1.95;1.10;;;;;;;24.31;38.87;100152.09;5015104;28;20494;-89
2022/07/19 00:16:47;;;;;;;3.17;1.00;;;;;;;23.68;39.10;100064.47;5015274;28;20108;-89
2022/07/19 00:19:13;;;;;;;5.80;1.27;;;;;;;23.75;39.42;100130.59;5015334;28;20022;-89
2022/07/19 00:21:38;;;;;;;2.33;1.30;;;;;;;24.00;39.39;100150.91;5015079;28;20022;-89
2022/07/19 00:24:04;;;;;;;3.90;1.30;;;;;;;23.41;39.77;100075.94;5014930;28;20109;-89
2022/07/19 00:26:30;;;;;;;3.53;1.30;;;;;;;23.07;39.98;100028.59;5014760;28;20483;-89
2022/07/19 00:28:56;;;;;;;3.88;1.27;;;;;;;23.86;40.01;100158.56;5014848;28;20112;-89
2022/07/19 00:31:23;;;;;;;4.65;1.33;;;;;;;23.59;40.28;100115.31;5014819;28;20061;-90
2022/07/19 00:33:48;;;;;;;3.75;1.20;;;;;;;23.45;40.38;100106.72;5014815;28;20116;-89
2022/07/19 00:36:17;;;;;;;2.13;1.40;;;;;;;22.87;40.53;100033.66;5014925;28;20108;-89
2022/07/19 00:38:42;;;;;;;2.20;1.02;;;;;;;22.51;40.73;99982.75;5014736;28;20411;-89
2022/07/19 00:41:11;;;;;;;2.17;1.35;;;;;;;23.34;40.86;100106.84;5015273;28;20030;-89
2022/07/19 00:43:40;;;;;;;2.85;1.20;;;;;;;23.04;40.99;100086.47;5014881;28;20018;-89
2022/07/19 00:46:15;;;;;;;4.20;1.80;;;;;;;23.71;41.19;100175.31;5014834;28;20477;-89
2022/07/19 00:48:41;;;;;;;3.83;2.22;;;;;;;22.89;41.21;100074.63;5014789;28;20115;-89
2022/07/19 00:51:11;;;;;;;7.68;4.90;;;;;;;23.14;41.39;100121.66;5014700;28;20026;-89
2022/07/19 00:53:38;;;;;;;6.70;5.18;;;;;;;22.87;41.43;100076.75;5014541;28;20017;-89
2022/07/19 00:56:08;;;;;;;8.43;4.30;;;;;;;22.95;41.52;100097.88;5014522;28;20029;-89
2022/07/19 00:58:34;;;;;;;12.18;6.75;;;;;;;;;;5014427;28;20026;-89
2022/07/19 01:01:00;;;;;;;6.75;5.22;;;;;;;21.84;41.74;99928.06;5014698;28;20026;-89
2022/07/19 01:03:26;;;;;;;7.28;4.13;;;;;;;22.38;41.95;100026.13;5014830;28;20026;-89
2022/07/19 01:05:52;;;;;;;6.05;3.28;;;;;;;22.77;41.98;100106.97;5014366;28;20036;-89
2022/07/19 01:08:18;;;;;;;4.05;3.03;;;;;;;22.72;42.38;100102.34;5014562;28;20025;-89
2022/07/19 01:10:43;;;;;;;6.75;3.47;;;;;;;23.09;42.54;100193.47;5014124;28;20557;-89
2022/07/19 01:13:11;;;;;;;6.78;3.08;;;;;;;22.48;42.62;100096.28;5018829;28;20511;-89
2022/07/19 01:15:39;;;;;;;6.45;3.38;;;;;;;22.57;42.82;100161.28;5024086;28;20497;-89
2022/07/19 01:18:05;;;;;;;5.93;3.83;;;;;;;22.29;43.06;100123.59;5020491;28;20026;-89
2022/07/19 01:20:30;;;;;;;5.07;3.00;;;;;;;21.80;43.06;100023.69;5015707;28;20025;-89
2022/07/19 01:22:56;;;;;;;7.32;2.40;;;;;;;21.94;43.35;100049.22;5014440;28;20110;-88
2022/07/19 01:25:23;;;;;;;4.93;2.10;;;;;;;22.19;43.38;100103.53;5014180;28;20076;-89
2022/07/19 01:27:49;;;;;;;4.35;2.15;;;;;;;22.10;43.41;100088.81;5014023;28;20026;-89
2022/07/19 01:30:20;;;;;;;5.65;1.90;;;;;;;21.62;43.49;99994.31;5013577;28;20021;-89
2022/07/19 01:32:45;;;;;;;2.28;1.52;;;;;;;22.74;43.34;100164.00;5013660;28;20052;-89
2022/07/19 01:35:12;;;;;;;3.50;1.67;;;;;;;22.74;43.42;100164.00;5013552;28;20053;-89
2022/07/19 01:37:38;;;;;;;4.00;1.50;;;;;;;21.72;43.24;100014.13;5013617;28;20030;-88
2022/07/19 01:40:05;;;;;;;4.05;1.85;;;;;;;22.82;43.08;100201.34;5013463;28;20021;-89
2022/07/19 01:42:31;;;;;;;6.82;1.95;;;;;;;22.23;43.19;100086.91;5013390;28;20018;-89
2022/07/19 01:44:56;;;;;;;3.25;1.60;;;;;;;22.53;43.31;100152.06;5013311;28;20010;-89
2022/07/19 01:47:22;;;;;;;6.70;1.90;;;;;;;22.70;43.48;100163.69;5014601;28;20494;-89
2022/07/19 01:49:48;;;;;;;5.30;2.05;;;;;;;22.05;43.36;100064.53;5013521;28;20022;-89
2022/07/19 01:52:13;;;;;;;4.80;1.65;;;;;;;22.34;43.52;100129.91;5014436;28;20033;-89
2022/07/19 01:54:38;;;;;;;3.80;1.75;;;;;;;22.40;43.71;100150.47;5013192;28;20025;-88
2022/07/19 01:57:04;;;;;;;3.65;1.58;;;;;;;22.22;44.00;100137.19;5012894;28;20038;-88
2022/07/19 01:59:29;;;;;;;5.15;2.00;;;;;;;22.12;44.07;100139.69;5013062;28;20482;-89
2022/07/19 02:01:55;;;;;;;5.03;1.67;;;;;;;21.48;44.58;100064.41;5013141;28;20022;-89
2022/07/19 02:04:20;;;;;;;3.78;1.73;;;;;;;21.48;44.70;100067.09;5013094;28;20030;-89
2022/07/19 02:06:46;;;;;;;3.67;2.15;;;;;;;21.89;44.79;100129.78;5013227;28;20412;-89
2022/07/19 02:09:11;;;;;;;5.05;1.45;;;;;;;21.00;44.76;100023.56;5013199;28;20476;-89
2022/07/19 02:11:36;;;;;;;3.55;1.90;;;;;;;21.53;45.09;100129.00;5013236;28;20562;-89
2022/07/19 02:14:07;;;;;;;2.88;1.63;;;;;;;20.49;45.37;99964.16;5013137;28;20626;-89
2022/07/19 02:16:34;;;;;;;6.25;1.85;;;;;;;20.62;45.41;100006.03;5012529;28;20057;-89
2022/07/19 02:19:00;;;;;;;3.33;1.42;;;;;;;21.67;45.42;100152.97;5013146;28;20058;-89
2022/07/19 02:21:25;;;;;;;3.28;1.73;;;;;;;21.85;45.08;100163.56;5013130;28;20528;-89
2022/07/19 02:23:51;;;;;;;6.15;1.77;;;;;;;20.70;45.13;99978.03;5013275;28;20550;-89
2022/07/19 02:26:16;;;;;;;3.33;1.52;;;;;;;21.33;45.07;100082.88;5013098;28;20456;-89
2022/07/19 02:28:42;;;;;;;4.82;1.98;;;;;;;21.58;44.98;100132.88;5012856;28;20506;-90
2022/07/19 02:31:07;;;;;;;4.22;1.85;;;;;;;21.29;45.08;100079.03;5012914;28;20120;-89
2022/07/19 02:33:32;;;;;;;3.03;1.67;;;;;;;20.81;45.33;100029.06;5012932;28;20082;-89
2022/07/19 02:35:58;;;;;;;4.45;1.77;;;;;;;21.79;45.20;100178.78;5012800;28;20025;-89
2022/07/19 02:38:23;;;;;;;3.47;2.03;;;;;;;21.75;45.42;100180.31;5012752;28;20030;-88
2022/07/19 02:40:49;;;;;;;3.53;1.58;;;;;;;21.34;45.37;100124.00;5012774;28;20037;-89
2022/07/19 02:43:14;;;;;;;3.97;1.67;;;;;;;21.66;45.68;100170.16;5012683;28;20021;-90
2022/07/19 02:45:40;;;;;;;2.45;1.77;;;;;;;21.03;45.80;100087.53;5012653;28;20056;-89
2022/07/19 02:48:05;;;;;;;4.93;2.03;;;;;;;21.60;45.42;100168.41;5012750;28;20461;-89
2022/07/19 02:50:31;;;;;;;5.63;2.05;;;;;;;21.08;45.63;100107.25;5016455;28;20030;-89
2022/07/19 02:52:57;;;;;;;5.63;2.05;;;;;;;20.23;45.83;99977.97;5021738;28;20033;-89
2022/07/19 02:55:22;;;;;;;3.03;2.00;;;;;;;21.05;45.99;100097.00;5028080;28;20025;-88
2022/07/19 02:57:48;;;;;;;4.20;1.80;;;;;;;21.26;45.92;100157.41;5032593;28;20111;-89
2022/07/19 03:00:14;;;;;;;3.50;1.90;;;;;;;21.02;45.96;100091.28;5013877;28;20030;-89
2022/07/19 03:02:40;;;;;;;5.68;1.70;;;;;;;20.05;45.83;99980.69;5012841;28;20092;-89
2022/07/19 03:05:07;;;;;;;3.30;2.22;;;;;;;21.50;45.73;100171.66;5013168;28;20029;-88
2022/07/19 03:07:35;;;;;;;3.75;1.67;;;;;;;21.35;45.87;100198.97;5013823;28;20034;-88
2022/07/19 03:10:01;;;;;;;4.00;2.17;;;;;;;19.77;46.06;99992.03;5014145;28;20022;-88
2022/07/19 03:12:26;;;;;;;5.28;1.70;;;;;;;20.59;46.24;100093.16;5015935;28;20032;-89
2022/07/19 03:14:51;;;;;;;5.50;1.80;;;;;;;20.66;46.25;100095.75;5014160;28;20513;-88
2022/07/19 03:17:17;;;;;;;5.72;1.90;;;;;;;19.96;46.37;100007.81;5013957;28;20422;-88
2022/07/19 03:19:42;;;;;;;5.22;2.22;;;;;;;20.99;46.53;100173.09;5012944;28;20026;-89
2022/07/19 03:22:08;;;;;;;6.63;2.00;;;;;;;20.59;46.72;100095.03;5012255;28;20033;-89
2022/07/19 03:24:33;;;;;;;4.30;2.10;;;;;;;21.06;46.66;100176.50;5012048;28;20021;-89
2022/07/19 03:26:58;;;;;;;4.45;2.22;;;;;;;20.31;46.69;100075.00;5012046;28;20548;-89
2022/07/19 03:29:27;;;;;;;2.80;1.98;;;;;;;20.99;46.96;100154.31;5011379;28;20025;-89
2022/07/19 03:31:52;;;;;;;3.75;2.05;;;;;;;20.26;46.52;100055.28;5012180;28;20080;-89
2022/07/19 03:34:17;;;;;;;3.88;2.05;;;;;;;20.57;46.58;100097.94;5011542;28;20029;-89
2022/07/19 03:36:43;;;;;;;6.00;2.17;;;;;;;20.76;46.58;100130.06;5011906;28;20030;-89
2022/07/19 03:39:08;;;;;;;5.03;2.30;;;;;;;20.88;46.60;100157.78;5011972;28;20022;-89
2022/07/19 03:41:34;;;;;;;5.75;2.20;;;;;;;20.71;46.73;100146.84;5012257;28;20475;-89
2022/07/19 03:43:59;;;;;;;4.95;2.35;;;;;;;19.37;46.70;99938.94;5012079;28;20034;-89
2022/07/19 03:46:26;;;;;;;2.88;2.10;;;;;;;20.99;46.97;100193.75;5011759;28;20512;-89
2022/07/19 03:48:51;;;;;;;7.00;2.30;;;;;;;21.00;46.91;100200.75;5013437;28;20037;-89
2022/07/19 03:51:16;;;;;;;5.15;2.85;;;;;;;20.79;46.90;100186.78;5015216;28;20483;-88
2022/07/19 03:53:42;;;;;;;5.72;2.70;;;;;;;19.86;47.05;100049.63;5011701;28;20095;-89
2022/07/19 03:56:07;;;;;;;5.03;2.67;;;;;;;20.57;47.20;100143.56;5011357;28;20022;-89
2022/07/19 03:58:33;;;;;;;6.13;2.70;;;;;;;20.43;46.95;100152.03;5011760;28;20036;-89
2022/07/19 04:00:58;;;;;;;6.78;2.53;;;;;;;20.17;47.27;100096.84;5011607;28;20034;-89
2022/07/19 04:03:24;;;;;;;7.57;2.60;;;;;;;20.24;47.27;100095.72;5011381;28;20037;-89
2022/07/19 04:05:50;;;;;;;3.08;2.30;;;;;;;20.26;47.21;100087.44;5012053;28;20026;-89
2022/07/19 04:08:15;;;;;;;3.10;2.40;;;;;;;20.00;47.24;100049.22;5011921;28;20421;-89
2022/07/19 04:10:41;;;;;;;6.78;2.75;;;;;;;20.66;47.24;100154.78;5011354;28;20574;-89
2022/07/19 04:13:07;;;;;;;3.75;2.70;;;;;;;20.54;47.21;100133.28;5011800;28;20034;-89
2022/07/19 04:15:32;;;;;;;5.32;2.65;;;;;;;20.61;47.42;100147.41;5011523;28;20025;-88
2022/07/19 04:17:58;;;;;;;4.68;2.47;;;;;;;20.01;47.42;100066.09;5011442;28;20080;-89
2022/07/19 04:20:23;;;;;;;4.53;2.40;;;;;;;20.93;47.33;100187.44;5012282;28;20111;-89
2022/07/19 04:22:49;;;;;;;6.05;2.72;;;;;;;20.80;47.19;100168.81;5012124;28;20026;-89
2022/07/19 04:25:14;;;;;;;6.53;2.78;;;;;;;20.47;47.20;100099.56;5011779;28;20076;-89
2022/07/19 04:27:40;;;;;;;5.80;2.53;;;;;;;20.63;47.38;100131.09;5011934;28;20036;-89
2022/07/19 04:30:06;;;;;;;6.32;2.53;;;;;;;20.82;47.25;100164.88;5011414;28;20105;-89
2022/07/19 04:32:33;;;;;;;9.20;3.10;;;;;;;20.47;47.43;100097.69;5011293;28;20034;-89
2022/07/19 04:35:00;;;;;;;4.97;2.58;;;;;;;20.85;47.44;100156.38;5011221;28;20033;-89
2022/07/19 04:37:25;;;;;;;5.80;2.65;;;;;;;21.16;47.55;100181.28;5011481;28;20045;-89
2022/07/19 04:39:51;;;;;;;4.88;3.08;;;;;;;20.73;47.44;100109.88;5012986;28;20030;-89
2022/07/19 04:42:17;;;;;;;7.28;3.50;;;;;;;20.02;47.58;99981.97;5020165;28;20087;-89
2022/07/19 04:44:42;;;;;;;5.50;2.67;;;;;;;20.90;47.15;100124.28;5023505;28;20054;-88
2022/07/19 04:47:07;;;;;;;10.63;3.20;;;;;;;21.21;47.45;100143.81;5032191;28;20033;-88
2022/07/19 04:49:33;;;;;;;8.63;3.20;;;;;;;21.22;47.52;100156.19;5017446;28;20022;-89
2022/07/19 04:51:58;;;;;;;3.65;2.63;;;;;;;20.75;47.37;100062.16;5016518;28;20025;-89
2022/07/19 04:54:24;;;;;;;7.53;2.85;;;;;;;21.27;47.38;100125.97;5015583;28;20515;-89
2022/07/19 04:56:49;;;;;;;6.55;3.00;;;;;;;21.06;47.14;100061.03;5014776;28;20056;-88
2022/07/19 04:59:14;;;;;;;8.77;2.55;;;;;;;21.91;47.38;100207.50;5015001;28;20030;-89
2022/07/19 05:01:40;;;;;;;5.63;1.80;;;;;;;21.13;47.41;100058.22;5015067;28;20030;-89
2022/07/19 05:04:06;;;;;;;7.78;1.80;;;;;;;21.02;47.51;100051.00;5014983;28;20080;-89
2022/07/19 05:06:31;;;;;;;5.78;1.92;;;;;;;21.91;47.78;100159.94;5015045;28;20033;-89
2022/07/19 05:08:57;;;;;;;4.05;1.73;;;;;;;22.22;47.68;100182.09;5016429;28;20068;-89
2022/07/19 05:11:22;;;;;;;3.85;1.60;;;;;;;22.30;47.44;100190.66;5014875;28;20033;-88
2022/07/19 05:13:48;;;;;;;3.70;2.03;;;;;;;21.04;47.48;100005.94;5015568;28;20041;-89
2022/07/19 05:16:13;;;;;;;2.05;1.13;;;;;;;22.46;47.24;100194.44;5016972;28;20064;-89
2022/07/19 05:18:39;;;;;;;5.85;1.45;;;;;;;22.50;47.20;100199.09;5031685;28;20041;-89
2022/07/19 05:21:04;;;;;;;2.83;1.27;;;;;;;22.02;47.09;100124.13;5035408;28;20026;-89
2022/07/19 05:23:30;;;;;;;3.10;1.38;;;;;;;21.65;46.94;100059.13;5032976;28;20080;-90
2022/07/19 05:25:55;;;;;;;3.17;1.42;;;;;;;22.17;46.53;100129.03;5018161;28;20018;-90
2022/07/19 05:28:21;;;;;;;3.33;1.55;;;;;;;22.73;46.83;100210.84;5016037;28;20029;-89
2022/07/19 05:30:46;;;;;;;2.50;1.33;;;;;;;22.57;46.64;100168.53;5030014;28;20108;-89
2022/07/19 05:33:12;;;;;;;2.78;1.30;;;;;;;22.17;46.45;100118.25;5047619;28;20084;-89
2022/07/19 05:35:38;;;;;;;3.72;1.80;;;;;;;21.54;46.43;100015.09;5034223;28;20029;-89
2022/07/19 05:38:03;;;;;;;1.85;1.60;;;;;;;22.67;46.24;100149.88;5034065;28;20539;-89
2022/07/19 05:40:32;;;;;;;2.25;1.00;;;;;;;22.38;46.44;100089.91;5033912;28;20064;-89
2022/07/19 05:42:57;;;;;;;2.90;1.30;;;;;;;21.94;46.46;100008.91;5034307;28;20036;-90
2022/07/19 05:45:22;;;;;;;4.28;1.50;;;;;;;21.10;46.43;99881.50;5033994;28;20025;-90
2022/07/19 05:47:48;;;;;;;2.45;1.30;;;;;;;21.86;45.98;99990.47;5020084;28;20037;-91
2022/07/19 05:50:13;;;;;;;3.13;1.52;;;;;;;22.30;45.95;100077.66;5032741;28;20034;-90
2022/07/19 05:52:39;;;;;;;4.38;1.55;;;;;;;22.66;45.75;100107.88;5027912;28;20478;-89
2022/07/19 05:55:06;;;;;;;4.43;1.63;;;;;;;22.35;45.76;100099.28;5014179;28;20116;-90
2022/07/19 05:57:31;;;;;;;4.88;2.50;;;;;;;22.22;45.29;100042.22;5044537;28;20131;-89
2022/07/19 05:59:57;;;;;;;3.35;1.55;;;;;;;23.20;45.66;100189.88;5033300;28;20041;-90
2022/07/19 06:02:22;;;;;;;6.75;2.35;;;;;;;22.76;45.52;100119.63;5033136;28;20429;-90
2022/07/19 06:04:48;;;;;;;4.90;1.95;;;;;;;23.02;45.48;100128.16;5027765;28;20425;-90
2022/07/19 06:07:13;;;;;;;5.90;2.00;;;;;;;23.42;45.42;100190.78;5024522;28;20494;-90
2022/07/19 06:09:39;;;;;;;4.57;1.75;;;;;;;22.76;45.15;100073.88;5032975;28;20577;-90
2022/07/19 06:12:04;;;;;;;2.45;1.50;;;;;;;23.25;44.74;100149.56;5031386;28;20064;-90
2022/07/19 06:14:29;;;;;;;2.08;1.58;;;;;;;22.64;44.46;100050.78;5014156;28;20083;-90
2022/07/19 06:16:55;;;;;;;3.92;2.65;;;;;;;23.03;44.38;100103.66;5021387;28;20069;-90
2022/07/19 06:19:21;;;;;;;4.28;1.83;;;;;;;23.15;44.36;100133.22;5031401;28;20030;-90
2022/07/19 06:21:47;;;;;;;4.10;2.00;;;;;;;23.42;44.21;100166.53;5013567;28;20030;-90
2022/07/19 06:24:13;;;;;;;3.55;2.05;;;;;;;23.10;44.48;100131.28;5013062;28;20356;-90
2022/07/19 06:26:38;;;;;;;5.70;2.75;;;;;;;23.12;44.08;100102.22;5013018;28;20024;-90
2022/07/19 06:29:04;;;;;;;5.25;2.70;;;;;;;23.65;43.43;100149.34;5017245;28;20116;-90
2022/07/19 06:31:29;;;;;;;3.35;2.58;;;;;;;23.80;43.08;100180.31;5015050;28;20500;-90
2022/07/19 06:33:54;;;;;;;4.05;2.65;;;;;;;23.42;43.33;100088.38;5017382;28;20030;-90
2022/07/19 06:36:20;;;;;;;6.40;2.53;;;;;;;23.65;42.79;100148.53;5015828;28;20026;-90
2022/07/19 06:38:47;;;;;;;6.63;2.25;;;;;;;22.80;43.18;100015.81;5021297;28;20032;-90
2022/07/19 06:41:13;;;;;;;3.85;2.63;;;;;;;24.17;43.24;100194.00;5033672;28;20117;-91
2022/07/19 06:43:39;;;;;;;4.97;2.45;;;;;;;24.17;42.87;100199.41;5032590;28;20029;-90
2022/07/19 06:46:06;;;;;;;3.53;2.25;;;;;;;24.36;42.39;100193.44;5031273;28;20026;-89
2022/07/19 06:48:31;;;;;;;4.40;2.60;;;;;;;24.32;41.73;100168.03;5031501;28;20064;-89
2022/07/19 06:50:57;;;;;;;4.32;2.20;;;;;;;23.77;41.71;100089.91;5014893;28;20030;-89
2022/07/19 06:53:22;;;;;;;6.35;2.38;;;;;;;24.25;41.66;100153.09;5013037;28;20030;-88
2022/07/19 06:55:48;;;;;;;4.72;2.33;;;;;;;24.35;40.94;100142.44;5011865;28;20109;-87
2022/07/19 06:58:14;;;;;;;4.38;2.80;;;;;;;23.90;41.02;100086.88;5015521;28;20072;-87
2022/07/19 07:00:39;;;;;;;3.92;2.47;;;;;;;24.62;40.53;100181.06;5015754;28;20434;-89
2022/07/19 07:03:05;;;;;;;6.47;2.35;;;;;;;24.56;40.29;100171.28;5011448;28;20068;-90
2022/07/19 07:05:32;;;;;;;3.08;1.95;;;;;;;24.44;39.69;100118.50;5023470;28;20026;-88
2022/07/19 07:07:57;;;;;;;7.43;2.47;;;;;;;24.95;39.09;100180.03;5029539;28;20502;-91
2022/07/19 07:10:22;;;;;;;3.72;2.20;;;;;;;24.93;38.69;100192.16;5037480;28;20060;-90
2022/07/19 07:12:51;;;;;;;4.95;2.80;;;;;;;24.69;38.84;100159.25;5016482;28;20082;-90
2022/07/19 07:15:16;;;;;;;5.32;2.30;;;;;;;24.46;38.72;100100.97;5012145;28;20038;-89
2022/07/19 07:17:42;;;;;;;3.08;1.95;;;;;;;24.45;38.56;100118.25;5013987;28;20034;-90
2022/07/19 07:20:08;;;;;;;4.45;1.85;;;;;;;24.53;37.69;100084.59;5012679;28;20021;-90
2022/07/19 07:22:35;;;;;;;2.92;1.58;;;;;;;24.88;36.95;100125.41;5011340;28;20088;-89
2022/07/19 07:25:01;;;;;;;4.32;1.50;;;;;;;24.72;37.13;100096.63;5014303;28;20064;-90
2022/07/19 07:27:26;;;;;;;8.30;1.90;;;;;;;25.51;35.96;100194.03;5024058;28;20057;-90
2022/07/19 07:29:55;;;;;;;4.28;2.45;;;;;;;25.55;35.53;100197.84;5012536;28;20030;-89
2022/07/19 07:32:20;;;;;;;3.92;1.70;;;;;;;24.56;34.85;100030.91;5011682;28;20037;-89
2022/07/19 07:34:46;;;;;;;5.50;4.78;;;;;;;25.16;35.00;100105.38;5011280;28;20022;-89
2022/07/19 07:37:12;;;;;;;4.35;2.50;;;;;;;25.07;34.72;100085.31;5012053;28;20030;-89
2022/07/19 07:39:38;;;;;;;3.97;1.70;;;;;;;25.19;34.69;100083.22;5011488;28;20026;-90
2022/07/19 07:42:04;;;;;;;3.65;1.42;;;;;;;25.91;34.74;100182.66;5020542;28;20037;-89
2022/07/19 07:44:30;;;;;;;4.00;1.60;;;;;;;25.74;34.78;100154.97;5011017;28;20029;-88
2022/07/19 07:46:55;;;;;;;7.15;1.85;;;;;;;25.63;34.28;100102.69;5029148;28;20029;-88
2022/07/19 07:49:21;;;;;;;2.40;1.70;;;;;;;25.75;34.41;100120.63;5029488;28;20034;-87
2022/07/19 07:51:47;;;;;;;3.00;1.50;;;;;;;26.20;34.36;100174.94;5026918;28;20506;-88
2022/07/19 07:54:13;;;;;;;2.60;1.80;;;;;;;26.22;32.80;100166.56;5030353;28;20040;-87
2022/07/19 07:56:38;;;;;;;3.17;1.30;;;;;;;25.26;32.54;99997.31;5031215;28;20049;-89
2022/07/19 07:59:04;;;;;;;2.45;1.70;;;;;;;25.53;32.50;100058.56;5025442;28;20029;-89
2022/07/19 08:01:30;;;;;;;3.63;1.20;;;;;;;25.61;32.27;100053.47;5025640;28;20124;-88
2022/07/19 08:03:56;;;;;;;6.07;1.73;;;;;;;26.51;31.74;100165.03;5048460;28;20017;-88
2022/07/19 08:06:21;;;;;;;3.08;1.70;;;;;;;26.68;31.37;100178.34;5042579;28;20474;-87
2022/07/19 08:08:47;;;;;;;6.40;1.77;;;;;;;26.21;31.40;100083.72;5033175;28;20040;-89
2022/07/19 08:11:12;;;;;;;3.83;1.30;;;;;;;26.01;30.88;100038.50;5019261;28;20108;-89
2022/07/19 08:13:39;;;;;;;3.40;2.20;;;;;;;26.84;30.31;100163.75;5028643;28;20049;-89
2022/07/19 08:16:06;;;;;;;7.35;1.50;;;;;;;26.88;30.36;100153.19;5030190;28;20045;-89
2022/07/19 08:18:31;;;;;;;4.63;1.90;;;;;;;26.72;30.83;100121.72;5035464;28;20364;-90
2022/07/19 08:20:57;;;;;;;2.60;1.55;;;;;;;26.22;30.63;100021.19;5056664;28;20048;-88
2022/07/19 08:23:22;;;;;;;9.73;2.45;;;;;;;26.94;30.72;100126.91;5054545;28;20032;-90
2022/07/19 08:25:47;;;;;;;5.88;3.13;;;;;;;26.62;30.54;100060.25;5054970;28;20496;-89
2022/07/19 08:28:13;;;;;;;3.58;2.97;;;;;;;26.89;30.56;100098.72;5019648;28;20022;-90
2022/07/19 08:30:38;;;;;;;4.30;1.52;;;;;;;26.43;30.21;100016.63;5036604;28;20045;-90
2022/07/19 08:33:08;;;;;;;4.80;3.15;;;;;;;26.91;30.18;100083.00;5033679;28;20025;-89
2022/07/19 08:35:33;;;;;;;3.95;2.30;;;;;;;27.21;30.06;100112.00;5016079;28;20026;-90
2022/07/19 08:37:59;;;;;;;3.85;1.88;;;;;;;27.41;29.83;100142.88;5021251;28;20040;-90
2022/07/19 08:40:24;;;;;;;3.03;1.17;;;;;;;26.47;29.54;100003.38;5021654;28;20045;-90
2022/07/19 08:42:50;;;;;;;4.43;1.50;;;;;;;27.04;29.60;100059.19;5034499;28;20509;-89
2022/07/19 08:45:16;;;;;;;5.95;1.85;;;;;;;27.74;29.90;100147.72;5035805;28;20096;-90
2022/07/19 08:47:43;;;;;;;5.70;2.45;;;;;;;27.92;29.10;100140.88;5032787;28;20049;-89
2022/07/19 08:50:11;;;;;;;4.65;1.88;;;;;;;27.34;28.56;100053.66;5022220;28;20117;-89
2022/07/19 08:52:37;;;;;;;2.70;1.83;;;;;;;28.10;27.79;100159.25;5033373;28;20036;-89
2022/07/19 08:55:03;;;;;;;3.03;1.50;;;;;;;27.36;27.52;100034.41;5025974;28;20025;-89
2022/07/19 09:00:13;;;;;;;4.10;1.52;;;;;;;27.69;27.46;100025.66;5031536;28;20072;-91
2022/07/19 09:02:40;;;;;;;3.63;1.88;;;;;;;27.61;27.19;99985.53;5014902;28;20422;-91
2022/07/19 09:05:08;;;;;;;2.97;1.80;;;;;;;28.78;26.66;100136.88;5019740;28;20017;-90
2022/07/19 09:07:39;;;;;;;3.20;1.70;;;;;;;28.51;26.32;100064.00;5023853;28;20032;-89
2022/07/19 09:10:16;;;;;;;9.48;2.58;;;;;;;28.55;25.93;100059.63;5013740;28;20033;-88
2022/07/19 09:13:08;;;;;;;4.97;1.63;;;;;;;29.21;25.71;100127.03;5024465;28;20018;-88
2022/07/19 09:15:50;;;;;;;4.75;1.30;;;;;;;28.68;25.58;100025.53;5013912;28;20536;-89
2022/07/19 09:18:29;;;;;;;4.68;2.08;;;;;;;29.44;25.31;100127.38;5013847;28;20092;-88
2022/07/19 09:20:57;;;;;;;2.67;1.63;;;;;;;29.56;25.12;100119.63;5013512;28;20021;-89
2022/07/19 09:23:22;;;;;;;3.08;1.42;;;;;;;28.58;25.11;99991.13;5013190;28;20037;-90
2022/07/19 09:25:51;;;;;;;10.27;1.60;;;;;;;29.83;24.91;100124.50;5015068;28;20034;-89
2022/07/19 09:28:18;;;;;;;4.57;1.70;;;;;;;30.00;24.64;100113.94;5027040;28;20049;-89
2022/07/19 09:30:48;;;;;;;6.43;2.22;;;;;;;30.15;24.48;100127.38;5016504;28;20033;-88
2022/07/19 09:33:15;;;;;;;2.67;1.80;;;;;;;30.41;24.64;100107.94;5027639;28;20037;-89
2022/07/19 09:35:44;;;;;;;6.70;1.85;;;;;;;30.49;24.16;100113.53;5032730;28;20052;-88
2022/07/19 09:38:29;;;;;;;6.45;1.90;;;;;;;30.61;23.79;100107.66;5024480;28;20030;-89
2022/07/19 09:41:08;;;;;;;3.88;1.52;;;;;;;29.92;23.66;99984.69;5017933;28;20494;-88
2022/07/19 09:43:56;;;;;;;8.43;1.73;;;;;;;30.18;23.83;100022.47;5022353;28;20029;-88
2022/07/19 09:46:33;;;;;;;7.85;1.70;;;;;;;30.73;23.15;100074.50;5013433;28;20053;-88
2022/07/19 09:49:06;;;;;;;3.92;1.50;;;;;;;31.04;23.38;100112.94;5029786;28;20041;-88
2022/07/19 09:51:34;;;;;;;4.97;1.52;;;;;;;31.20;23.32;100117.03;5028613;28;20033;-88
2022/07/19 09:54:02;;;;;;;3.80;1.75;;;;;;;30.79;23.38;100022.31;5019061;28;20049;-88
2022/07/19 09:56:30;;;;;;;5.43;3.08;;;;;;;30.21;22.92;99902.03;5023739;28;20533;-89
2022/07/19 09:58:56;;;;;;;3.38;2.58;;;;;;;31.26;23.22;100023.91;5024462;28;20045;-89
2022/07/19 10:01:23;;;;;;;4.25;1.88;;;;;;;31.47;22.83;100040.69;5018310;28;20014;-88
2022/07/19 10:03:51;;;;;;;3.47;1.80;;;;;;;31.52;22.11;100035.13;5023995;28;20031;-88
2022/07/19 10:06:17;;;;;;;5.15;1.55;;;;;;;31.92;22.24;100123.56;5032138;28;20021;-88
2022/07/19 10:08:43;;;;;;;6.60;1.48;;;;;;;31.05;21.96;99934.56;5032399;28;20017;-88
2022/07/19 10:11:08;;;;;;;3.40;2.20;;;;;;;31.14;21.90;99930.81;5031302;28;20109;-89
2022/07/19 10:13:35;;;;;;;9.48;2.75;;;;;;;31.83;21.27;99988.88;5031912;28;20045;-88
2022/07/19 10:16:03;;;;;;;4.97;2.08;;;;;;;32.54;21.24;100084.78;5033051;28;20527;-88
2022/07/19 10:18:37;;;;;;;5.65;2.03;;;;;;;32.47;21.17;100043.41;5032106;28;20080;-88
2022/07/19 10:21:03;;;;;;;5.97;1.75;;;;;;;32.76;20.55;100065.66;5031841;28;20497;-88
2022/07/19 10:23:31;;;;;;;5.93;1.90;;;;;;;32.52;20.57;100003.09;5031728;28;20022;-88
2022/07/19 10:25:56;;;;;;;5.68;1.60;;;;;;;33.19;20.54;100087.00;5031874;28;20057;-88
2022/07/19 10:28:35;;;;;;;7.10;2.35;;;;;;;33.26;20.46;100084.59;5030726;28;20083;-88
2022/07/19 10:31:01;;;;;;;1.85;1.60;;;;;;;32.95;20.40;100026.38;5031145;28;20064;-88
2022/07/19 10:33:30;;;;;;;2.30;1.13;;;;;;;32.94;20.36;99984.53;5031147;28;20449;-88
2022/07/19 10:35:55;;;;;;;3.63;1.60;;;;;;;33.05;20.16;99983.13;5033757;28;20037;-88
2022/07/19 10:38:21;;;;;;;2.97;1.42;;;;;;;33.02;19.98;99930.97;5042314;28;20090;-88
2022/07/19 10:40:56;;;;;;;2.38;1.30;;;;;;;33.48;19.65;99980.53;5019230;28;20192;-88
2022/07/19 10:43:22;;;;;;;5.75;1.35;;;;;;;33.55;19.79;100001.16;5022233;28;20029;-88
2022/07/19 10:45:56;;;;;;;3.70;1.60;;;;;;;34.19;19.35;100056.19;5013949;28;20032;-88
2022/07/19 10:48:41;;;;;;;5.25;1.40;;;;;;;34.21;19.14;100051.22;5013568;28;20624;-88
2022/07/19 10:51:10;;;;;;;2.65;1.30;;;;;;;33.73;19.35;99962.53;5026452;28;20025;-89
2022/07/19 10:53:42;;;;;;;1.63;1.17;;;;;;;34.43;19.02;100045.59;5012605;28;20560;-89
2022/07/19 10:56:20;;;;;;;3.30;1.52;;;;;;;34.31;18.94;100039.94;5012333;28;20029;-90
2022/07/19 10:59:05;;;;;;;4.22;1.50;;;;;;;34.44;18.51;100049.94;5019496;28;20040;-89
2022/07/19 11:01:33;;;;;;;2.13;1.30;;;;;;;33.46;19.12;99914.34;5029177;28;20029;-88
2022/07/19 11:04:31;;;;;;;2.92;1.35;;;;;;;34.48;19.09;100039.94;5021747;28;20032;-88
2022/07/19 11:07:20;;;;;;;3.85;1.40;;;;;;;34.33;19.66;99997.38;5028921;28;20033;-90
2022/07/19 11:09:55;;;;;;;3.55;1.25;;;;;;;34.75;19.03;100038.75;5015977;28;20026;-89
2022/07/19 11:12:31;;;;;;;6.53;2.60;;;;;;;34.90;18.39;100032.75;5012054;28;20099;-88
2022/07/19 11:14:59;;;;;;;6.32;2.03;;;;;;;34.87;18.35;100002.41;5017660;28;20054;-88
2022/07/19 11:17:24;;;;;;;4.05;1.63;;;;;;;34.96;18.83;100044.38;5012483;28;20030;-87
2022/07/19 11:20:02;;;;;;;3.88;1.65;;;;;;;34.53;18.55;99953.94;5013233;28;20024;-88
2022/07/19 11:22:33;;;;;;;4.47;1.42;;;;;;;34.92;18.68;100032.41;5019421;28;20041;-88
2022/07/19 11:24:58;;;;;;;2.10;1.10;;;;;;;34.87;18.30;99981.28;5010379;28;20438;-88
2022/07/19 11:27:24;;;;;;;3.95;1.23;;;;;;;34.85;18.36;99952.56;5022586;28;20034;-88
2022/07/19 11:29:53;;;;;;;2.40;1.10;;;;;;;35.30;18.26;100005.00;5026045;28;20105;-88